createdAt,value
2022-10-25T00:00:00.292Z,8.7
2022-10-25T00:01:00.478Z,8.6
2022-10-25T00:02:00.523Z,8.6
2022-10-25T00:03:00.299Z,8.6
2022-10-25T00:04:00.453Z,8.6
2022-10-25T00:05:00.335Z,8.6
2022-10-25T00:06:00.326Z,8.7
2022-10-25T00:07:00.283Z,8.7
2022-10-25T00:08:00.301Z,8.8
2022-10-25T00:09:00.342Z,8.8
2022-10-25T00:10:00.428Z,8.8
2022-10-25T00:11:00.293Z,8.8
2022-10-25T00:12:00.327Z,8.7
2022-10-25T00:13:00.312Z,8.7
2022-10-25T00:14:00.296Z,8.6
2022-10-25T00:15:00.306Z,8.6
2022-10-25T00:16:00.441Z,8.6
2022-10-25T00:17:00.297Z,8.6
2022-10-25T00:18:00.281Z,8.6
2022-10-25T00:19:00.321Z,8.6
2022-10-25T00:20:00.317Z,8.6
2022-10-25T00:21:00.332Z,8.6
2022-10-25T00:22:00.436Z,8.5
2022-10-25T00:23:00.356Z,8.5
2022-10-25T00:24:00.293Z,8.4
2022-10-25T00:25:00.323Z,8.4
2022-10-25T00:26:00.350Z,8.3
2022-10-25T00:27:00.298Z,8.3
2022-10-25T00:28:00.409Z,8.2
2022-10-25T00:29:00.312Z,8.2
2022-10-25T00:30:00.278Z,8.2
2022-10-25T00:31:00.294Z,8.2
2022-10-25T00:32:00.296Z,8.2
2022-10-25T00:33:00.299Z,8.1
2022-10-25T00:34:00.430Z,8.1
2022-10-25T00:35:00.299Z,8.1
2022-10-25T00:36:00.291Z,8.1
2022-10-25T00:37:00.327Z,8.1
2022-10-25T00:38:00.313Z,8.1
2022-10-25T00:39:00.311Z,8.1
2022-10-25T00:40:00.697Z,8.1
2022-10-25T00:41:00.305Z,8.0
2022-10-25T00:42:00.344Z,8.0
2022-10-25T00:43:00.364Z,8.0
2022-10-25T00:44:00.293Z,8.0
2022-10-25T00:45:00.319Z,8.0
2022-10-25T00:47:00.315Z,8.1
2022-10-25T00:48:00.279Z,8.2
2022-10-25T00:49:00.392Z,8.4
2022-10-25T00:50:00.301Z,8.4
2022-10-25T00:51:00.383Z,8.5
2022-10-25T00:52:00.551Z,8.6
2022-10-25T00:53:00.295Z,8.7
2022-10-25T00:54:00.303Z,8.7
2022-10-25T00:55:00.716Z,8.7
2022-10-25T00:56:00.308Z,8.7
2022-10-25T00:57:00.297Z,8.8
2022-10-25T00:58:00.537Z,8.8
2022-10-25T00:59:00.302Z,8.8
2022-10-25T01:00:00.311Z,8.9
2022-10-25T01:01:00.465Z,8.9
2022-10-25T01:02:00.488Z,9.0
2022-10-25T01:03:00.318Z,9.0
2022-10-25T01:04:00.468Z,9.0
2022-10-25T01:05:00.306Z,9.0
2022-10-25T01:06:00.309Z,9.0
2022-10-25T01:07:00.295Z,9.0
2022-10-25T01:08:00.382Z,9.0
2022-10-25T01:09:00.308Z,8.9
2022-10-25T01:10:00.453Z,8.9
2022-10-25T01:11:00.348Z,8.9
2022-10-25T01:12:00.320Z,8.8
2022-10-25T01:13:00.310Z,8.8
2022-10-25T01:14:00.313Z,8.8
2022-10-25T01:15:00.296Z,8.7
2022-10-25T01:16:00.698Z,8.7
2022-10-25T01:17:00.281Z,8.6
2022-10-25T01:18:00.300Z,8.6
2022-10-25T01:19:00.281Z,8.6
2022-10-25T01:20:00.297Z,8.6
2022-10-25T01:21:00.307Z,8.6
2022-10-25T01:22:00.480Z,8.6
2022-10-25T01:23:00.280Z,8.6
2022-10-25T01:24:00.299Z,8.6
2022-10-25T01:25:00.374Z,8.6
2022-10-25T01:26:00.446Z,8.6
2022-10-25T01:27:00.281Z,8.7
2022-10-25T01:28:00.451Z,8.7
2022-10-25T01:29:00.296Z,8.7
2022-10-25T01:30:00.348Z,8.7
2022-10-25T01:31:00.294Z,8.7
2022-10-25T01:32:00.298Z,8.8
2022-10-25T01:33:00.295Z,8.8
2022-10-25T01:34:00.443Z,8.8
2022-10-25T01:35:00.298Z,8.8
2022-10-25T01:36:00.415Z,8.8
2022-10-25T01:37:00.313Z,8.8
2022-10-25T01:38:00.305Z,8.8
2022-10-25T01:39:00.361Z,8.8
2022-10-25T01:40:00.589Z,8.8
2022-10-25T01:41:00.465Z,8.9
2022-10-25T01:42:00.366Z,8.8
2022-10-25T01:43:00.356Z,8.8
2022-10-25T01:44:00.325Z,8.8
2022-10-25T01:45:00.348Z,8.8
2022-10-25T01:46:00.547Z,8.7
2022-10-25T01:47:00.318Z,8.7
2022-10-25T01:48:00.314Z,8.7
2022-10-25T01:49:00.303Z,8.7
2022-10-25T01:50:00.307Z,8.7
2022-10-25T01:51:00.303Z,8.7
2022-10-25T01:52:00.460Z,8.7
2022-10-25T01:53:00.348Z,8.7
2022-10-25T01:54:00.296Z,8.6
2022-10-25T01:55:00.302Z,8.6
2022-10-25T01:56:00.320Z,8.6
2022-10-25T01:57:00.428Z,8.5
2022-10-25T01:58:00.414Z,8.5
2022-10-25T01:59:00.327Z,8.5
2022-10-25T02:00:00.442Z,8.4
2022-10-25T02:01:00.353Z,8.4
2022-10-25T02:02:00.351Z,8.4
2022-10-25T02:03:00.283Z,8.3
2022-10-25T02:04:00.435Z,8.3
2022-10-25T02:05:00.289Z,8.2
2022-10-25T02:06:00.309Z,8.2
2022-10-25T02:07:00.317Z,8.1
2022-10-25T02:08:00.311Z,8.0
2022-10-25T02:09:00.302Z,8.0
2022-10-25T02:10:00.593Z,7.9
2022-10-25T02:11:00.306Z,7.9
2022-10-25T02:12:00.341Z,7.9
2022-10-25T02:13:00.347Z,7.9
2022-10-25T02:14:00.317Z,7.9
2022-10-25T02:15:00.307Z,7.8
2022-10-25T02:16:00.611Z,7.8
2022-10-25T02:17:00.403Z,7.8
2022-10-25T02:18:00.303Z,7.8
2022-10-25T02:19:00.294Z,7.8
2022-10-25T02:20:00.281Z,7.8
2022-10-25T02:21:00.297Z,7.8
2022-10-25T02:22:00.469Z,7.8
2022-10-25T02:23:00.288Z,7.9
2022-10-25T02:24:00.328Z,7.9
2022-10-25T02:25:00.309Z,8.0
2022-10-25T02:26:00.283Z,8.0
2022-10-25T02:27:00.336Z,8.0
2022-10-25T02:28:00.396Z,7.9
2022-10-25T02:29:00.369Z,7.9
2022-10-25T02:30:00.307Z,7.8
2022-10-25T02:31:00.294Z,7.8
2022-10-25T02:32:00.353Z,7.8
2022-10-25T02:33:00.312Z,7.8
2022-10-25T02:34:00.535Z,7.7
2022-10-25T02:35:00.357Z,7.7
2022-10-25T02:36:00.295Z,7.7
2022-10-25T02:37:00.291Z,7.7
2022-10-25T02:38:00.297Z,7.7
2022-10-25T02:39:00.342Z,7.7
2022-10-25T02:40:00.462Z,7.7
2022-10-25T02:41:00.302Z,7.7
2022-10-25T02:42:00.399Z,7.8
2022-10-25T02:43:00.328Z,7.8
2022-10-25T02:44:00.358Z,7.8
2022-10-25T02:45:00.313Z,7.8
2022-10-25T02:46:00.463Z,7.8
2022-10-25T02:47:00.302Z,7.8
2022-10-25T02:48:00.324Z,7.8
2022-10-25T02:49:00.309Z,7.9
2022-10-25T02:50:00.294Z,7.9
2022-10-25T02:51:00.289Z,7.9
2022-10-25T02:52:00.524Z,7.9
2022-10-25T02:53:00.288Z,7.9
2022-10-25T02:54:00.308Z,7.9
2022-10-25T02:55:00.314Z,7.8
2022-10-25T02:56:00.314Z,7.8
2022-10-25T02:57:00.325Z,7.8
2022-10-25T02:58:00.458Z,7.8
2022-10-25T02:59:00.292Z,7.9
2022-10-25T03:00:00.387Z,7.9
2022-10-25T03:01:00.345Z,7.9
2022-10-25T03:02:00.362Z,7.9
2022-10-25T03:03:00.310Z,7.8
2022-10-25T03:04:00.442Z,7.8
2022-10-25T03:05:00.284Z,7.8
2022-10-25T03:06:00.323Z,7.7
2022-10-25T03:07:00.351Z,7.7
2022-10-25T03:08:00.290Z,7.7
2022-10-25T03:09:00.340Z,7.7
2022-10-25T03:10:00.479Z,7.7
2022-10-25T03:11:00.308Z,7.7
2022-10-25T03:12:00.412Z,7.7
2022-10-25T03:13:00.355Z,7.7
2022-10-25T03:14:00.296Z,7.7
2022-10-25T03:15:00.305Z,7.7
2022-10-25T03:16:00.487Z,7.6
2022-10-25T03:17:00.370Z,7.6
2022-10-25T03:18:00.294Z,7.5
2022-10-25T03:19:00.276Z,7.5
2022-10-25T03:20:00.305Z,7.5
2022-10-25T03:21:00.289Z,7.5
2022-10-25T03:22:00.437Z,7.4
2022-10-25T03:23:00.289Z,7.4
2022-10-25T03:24:00.316Z,7.4
2022-10-25T03:25:00.336Z,7.4
2022-10-25T03:26:00.303Z,7.4
2022-10-25T03:27:00.366Z,7.4
2022-10-25T03:28:00.659Z,7.4
2022-10-25T03:29:00.321Z,7.4
2022-10-25T03:30:00.296Z,7.3
2022-10-25T03:31:00.313Z,7.3
2022-10-25T03:32:00.374Z,7.3
2022-10-25T03:33:00.331Z,7.2
2022-10-25T03:34:00.459Z,7.2
2022-10-25T03:35:00.293Z,7.2
2022-10-25T03:36:00.311Z,7.2
2022-10-25T03:37:00.309Z,7.1
2022-10-25T03:38:00.357Z,7.1
2022-10-25T03:39:00.334Z,7.1
2022-10-25T03:40:00.617Z,7.1
2022-10-25T03:41:00.383Z,7.1
2022-10-25T03:42:00.413Z,7.1
2022-10-25T03:43:00.301Z,7.1
2022-10-25T03:44:00.279Z,7.1
2022-10-25T03:45:00.312Z,7.2
2022-10-25T03:46:00.436Z,7.2
2022-10-25T03:47:00.308Z,7.2
2022-10-25T03:48:00.287Z,7.2
2022-10-25T03:49:00.274Z,7.2
2022-10-25T03:50:00.307Z,7.2
2022-10-25T03:51:00.320Z,7.2
2022-10-25T03:52:02.797Z,7.2
2022-10-25T03:53:00.439Z,7.2
2022-10-25T03:54:00.367Z,7.3
2022-10-25T03:55:00.357Z,7.3
2022-10-25T03:56:00.338Z,7.3
2022-10-25T03:57:00.481Z,7.4
2022-10-25T03:58:00.378Z,7.5
2022-10-25T03:59:00.308Z,7.5
2022-10-25T04:00:00.310Z,7.6
2022-10-25T04:01:00.340Z,7.6
2022-10-25T04:02:00.336Z,7.6
2022-10-25T04:03:02.168Z,7.7
2022-10-25T04:04:00.530Z,7.7
2022-10-25T04:05:00.269Z,7.8
2022-10-25T04:06:00.290Z,7.8
2022-10-25T04:07:00.305Z,7.9
2022-10-25T04:08:00.287Z,7.9
2022-10-25T04:09:00.372Z,7.9
2022-10-25T04:10:00.432Z,8.0
2022-10-25T04:11:00.286Z,8.0
2022-10-25T04:12:00.360Z,8.0
2022-10-25T04:13:00.505Z,8.1
2022-10-25T04:14:00.408Z,8.1
2022-10-25T04:15:00.304Z,8.1
2022-10-25T04:16:00.434Z,8.2
2022-10-25T04:17:00.284Z,8.2
2022-10-25T04:18:00.289Z,8.3
2022-10-25T04:19:00.355Z,8.3
2022-10-25T04:20:00.413Z,8.4
2022-10-25T04:21:00.311Z,8.4
2022-10-25T04:22:00.485Z,8.4
2022-10-25T04:23:00.292Z,8.5
2022-10-25T04:24:03.443Z,8.5
2022-10-25T04:25:00.286Z,8.6
2022-10-25T04:26:00.296Z,8.6
2022-10-25T04:27:00.285Z,8.7
2022-10-25T04:28:00.477Z,8.7
2022-10-25T04:29:00.452Z,8.8
2022-10-25T04:30:00.305Z,8.8
2022-10-25T04:31:00.274Z,8.9
2022-10-25T04:32:00.319Z,8.9
2022-10-25T04:33:00.371Z,8.9
2022-10-25T04:34:00.492Z,8.9
2022-10-25T04:35:00.319Z,9.0
2022-10-25T04:36:00.279Z,9.1
2022-10-25T04:37:00.284Z,9.2
2022-10-25T04:38:00.343Z,9.9
2022-10-25T04:39:00.410Z,12.1
2022-10-25T04:40:00.489Z,14.9
2022-10-25T04:41:00.289Z,16.4
2022-10-25T04:42:00.361Z,17.8
2022-10-25T04:43:00.301Z,19.7
2022-10-25T04:44:00.507Z,21.3
2022-10-25T04:45:00.373Z,22.5
2022-10-25T04:46:00.354Z,23.6
2022-10-25T04:47:00.285Z,24.6
2022-10-25T04:48:00.309Z,25.4
2022-10-25T04:49:00.289Z,26.2
2022-10-25T04:50:00.308Z,26.9
2022-10-25T04:51:00.271Z,27.5
2022-10-25T04:52:00.494Z,28.1
2022-10-25T04:53:00.306Z,28.6
2022-10-25T04:54:00.279Z,29.0
2022-10-25T04:55:00.299Z,29.4
2022-10-25T04:56:00.299Z,29.8
2022-10-25T04:57:00.305Z,30.1
2022-10-25T04:58:00.482Z,30.5
2022-10-25T04:59:00.324Z,30.9
2022-10-25T05:00:00.489Z,31.2
2022-10-25T05:01:00.642Z,31.5
2022-10-25T05:02:00.270Z,31.8
2022-10-25T05:03:00.348Z,32.0
2022-10-25T05:04:00.387Z,32.1
2022-10-25T05:05:00.288Z,32.3
2022-10-25T05:06:00.316Z,32.5
2022-10-25T05:07:00.268Z,32.7
2022-10-25T05:08:00.430Z,32.9
2022-10-25T05:09:00.338Z,33.1
2022-10-25T05:10:00.415Z,33.3
2022-10-25T05:11:00.369Z,33.5
2022-10-25T05:12:00.326Z,33.7
2022-10-25T05:13:00.374Z,33.9
2022-10-25T05:14:00.281Z,34.1
2022-10-25T05:15:00.353Z,34.3
2022-10-25T05:16:00.620Z,34.5
2022-10-25T05:17:00.285Z,34.6
2022-10-25T05:18:00.346Z,34.8
2022-10-25T05:19:00.298Z,34.9
2022-10-25T05:20:00.313Z,35.0
2022-10-25T05:21:00.279Z,35.0
2022-10-25T05:22:00.407Z,35.1
2022-10-25T05:23:00.325Z,35.3
2022-10-25T05:24:01.912Z,35.5
2022-10-25T05:25:00.293Z,35.7
2022-10-25T05:26:00.319Z,35.9
2022-10-25T05:27:00.314Z,36.1
2022-10-25T05:28:00.459Z,36.0
2022-10-25T05:29:00.294Z,36.1
2022-10-25T05:30:00.305Z,36.3
2022-10-25T05:31:00.417Z,36.4
2022-10-25T05:32:00.303Z,36.2
2022-10-25T05:33:02.793Z,36.0
2022-10-25T05:34:00.440Z,36.0
2022-10-25T05:35:00.313Z,36.3
2022-10-25T05:36:00.313Z,36.5
2022-10-25T05:37:00.292Z,36.7
2022-10-25T05:38:00.297Z,36.6
2022-10-25T05:39:00.292Z,36.5
2022-10-25T05:40:00.462Z,36.5
2022-10-25T05:42:00.297Z,36.8
2022-10-25T05:43:00.314Z,37.0
2022-10-25T05:44:00.298Z,37.0
2022-10-25T05:45:00.284Z,36.9
2022-10-25T05:46:00.558Z,36.8
2022-10-25T05:47:00.365Z,36.9
2022-10-25T05:48:00.359Z,36.9
2022-10-25T05:49:00.365Z,36.9
2022-10-25T05:50:00.343Z,36.9
2022-10-25T05:51:14.215Z,36.6
2022-10-25T05:52:00.433Z,36.4
2022-10-25T05:53:00.294Z,36.2
2022-10-25T05:54:00.401Z,36.2
2022-10-25T05:55:00.297Z,36.3
2022-10-25T05:56:00.290Z,36.4
2022-10-25T05:57:00.309Z,36.2
2022-10-25T05:58:00.461Z,36.0
2022-10-25T05:59:00.333Z,36.1
2022-10-25T06:00:00.283Z,36.3
2022-10-25T06:01:00.489Z,36.5
2022-10-25T06:02:00.568Z,36.7
2022-10-25T06:03:00.295Z,36.8
2022-10-25T06:04:00.422Z,36.7
2022-10-25T06:05:00.295Z,36.8
2022-10-25T06:06:00.287Z,36.8
2022-10-25T06:07:00.295Z,36.9
2022-10-25T06:08:00.313Z,37.1
2022-10-25T06:09:00.317Z,37.2
2022-10-25T06:10:00.447Z,37.1
2022-10-25T06:11:00.327Z,37.2
2022-10-25T06:12:00.284Z,37.3
2022-10-25T06:13:00.296Z,37.0
2022-10-25T06:14:00.307Z,36.7
2022-10-25T06:15:00.335Z,36.7
2022-10-25T06:16:00.569Z,36.7
2022-10-25T06:17:00.442Z,36.7
2022-10-25T06:18:00.349Z,36.6
2022-10-25T06:19:00.295Z,36.1
2022-10-25T06:20:00.300Z,36.1
2022-10-25T06:21:00.361Z,36.2
2022-10-25T06:22:00.386Z,36.3
2022-10-25T06:23:00.289Z,36.5
2022-10-25T06:24:00.323Z,36.8
2022-10-25T06:25:00.289Z,36.8
2022-10-25T06:26:00.282Z,36.9
2022-10-25T06:27:00.294Z,37.0
2022-10-25T06:28:00.507Z,37.2
2022-10-25T06:29:00.292Z,35.7
2022-10-25T06:30:00.294Z,31.9
2022-10-25T06:31:00.289Z,28.7
2022-10-25T06:32:00.492Z,26.8
2022-10-25T06:33:00.446Z,25.4
2022-10-25T06:34:00.515Z,24.3
2022-10-25T06:35:00.314Z,23.2
2022-10-25T06:36:00.290Z,22.2
2022-10-25T06:37:00.296Z,21.5
2022-10-25T06:38:00.296Z,20.8
2022-10-25T06:39:05.952Z,20.3
2022-10-25T06:40:00.471Z,19.8
2022-10-25T06:41:00.315Z,19.3
2022-10-25T06:42:00.284Z,18.9
2022-10-25T06:43:00.285Z,18.5
2022-10-25T06:44:05.348Z,18.2
2022-10-25T06:45:00.296Z,18.0
2022-10-25T06:46:00.458Z,17.7
2022-10-25T06:47:17.940Z,17.4
2022-10-25T06:48:00.292Z,17.0
2022-10-25T06:49:00.351Z,16.8
2022-10-25T06:50:00.353Z,16.5
2022-10-25T06:51:00.304Z,16.4
2022-10-25T06:52:00.526Z,16.3
2022-10-25T06:53:00.335Z,16.2
2022-10-25T06:54:00.813Z,16.0
2022-10-25T06:55:00.402Z,15.9
2022-10-25T06:56:04.468Z,16.2
2022-10-25T06:57:00.353Z,17.0
2022-10-25T06:58:00.603Z,19.2
2022-10-25T06:59:00.357Z,22.1
2022-10-25T07:01:00.296Z,27.2
2022-10-25T07:02:00.689Z,28.9
2022-10-25T07:03:00.594Z,30.2
2022-10-25T07:04:00.503Z,31.3
2022-10-25T07:05:00.268Z,32.1
2022-10-25T07:06:00.288Z,32.9
2022-10-25T07:07:00.260Z,33.6
2022-10-25T07:08:00.270Z,34.3
2022-10-25T07:09:00.276Z,34.9
2022-10-25T07:10:00.424Z,35.4
2022-10-25T07:11:00.268Z,35.7
2022-10-25T07:12:00.278Z,36.1
2022-10-25T07:13:00.269Z,36.2
2022-10-25T07:14:00.285Z,36.6
2022-10-25T07:15:00.265Z,36.9
2022-10-25T07:16:00.395Z,37.1
2022-10-25T07:17:00.276Z,36.9
2022-10-25T07:18:00.273Z,36.6
2022-10-25T07:19:00.389Z,36.5
2022-10-25T07:20:00.266Z,37.0
2022-10-25T07:21:00.265Z,37.6
2022-10-25T07:22:00.482Z,38.1
2022-10-25T07:23:01.146Z,38.4
2022-10-25T07:24:00.275Z,38.4
2022-10-25T07:25:00.363Z,38.4
2022-10-25T07:26:00.324Z,38.5
2022-10-25T07:27:00.323Z,38.7
2022-10-25T07:28:00.477Z,38.8
2022-10-25T07:29:00.365Z,39.0
2022-10-25T07:30:00.247Z,39.0
2022-10-25T07:31:00.250Z,39.2
2022-10-25T07:32:00.318Z,39.3
2022-10-25T07:33:00.260Z,39.2
2022-10-25T07:34:00.584Z,38.7
2022-10-25T07:35:00.691Z,38.3
2022-10-25T07:36:09.673Z,37.7
2022-10-25T07:37:00.263Z,37.7
2022-10-25T07:38:00.283Z,37.6
2022-10-25T07:39:00.390Z,38.0
2022-10-25T07:40:00.505Z,38.6
2022-10-25T07:41:00.643Z,38.8
2022-10-25T07:42:00.350Z,38.6
2022-10-25T07:43:00.293Z,38.7
2022-10-25T07:44:00.306Z,38.6
2022-10-25T07:45:00.304Z,38.7
2022-10-25T07:46:00.564Z,39.0
2022-10-25T07:47:00.277Z,39.3
2022-10-25T07:48:00.320Z,39.7
2022-10-25T07:49:00.297Z,39.8
2022-10-25T07:50:00.435Z,39.8
2022-10-25T07:51:00.459Z,39.5
2022-10-25T07:52:00.412Z,39.2
2022-10-25T07:53:00.377Z,39.1
2022-10-25T07:54:00.298Z,38.4
2022-10-25T07:55:01.373Z,38.2
2022-10-25T07:56:00.384Z,37.9
2022-10-25T07:57:00.371Z,38.2
2022-10-25T07:58:00.473Z,38.7
2022-10-25T07:59:00.348Z,38.9
2022-10-25T08:00:00.383Z,38.9
2022-10-25T08:01:00.312Z,39.0
2022-10-25T08:02:00.338Z,39.0
2022-10-25T08:03:00.535Z,39.0
2022-10-25T08:04:00.402Z,39.0
2022-10-25T08:05:00.359Z,39.0
2022-10-25T08:06:00.336Z,39.0
2022-10-25T08:07:00.461Z,38.9
2022-10-25T08:08:00.312Z,39.0
2022-10-25T08:12:00.460Z,39.3
2022-10-25T08:13:00.314Z,39.8
2022-10-25T08:14:00.308Z,39.9
2022-10-25T08:15:00.313Z,39.7
2022-10-25T08:16:00.305Z,39.4
2022-10-25T08:17:00.320Z,39.3
2022-10-25T08:18:00.458Z,39.5
2022-10-25T08:19:00.316Z,39.6
2022-10-25T08:20:00.307Z,39.9
2022-10-25T08:21:03.011Z,40.2
2022-10-25T08:22:00.453Z,40.4
2022-10-25T08:23:00.439Z,40.4
2022-10-25T08:24:00.467Z,40.3
2022-10-25T08:25:00.283Z,39.8
2022-10-25T08:26:00.287Z,39.3
2022-10-25T08:27:00.313Z,39.3
2022-10-25T08:28:00.318Z,39.3
2022-10-25T08:29:00.315Z,39.4
2022-10-25T08:30:00.431Z,39.7
2022-10-25T08:31:00.323Z,39.8
2022-10-25T08:32:00.303Z,39.7
2022-10-25T08:33:00.301Z,39.6
2022-10-25T08:34:00.422Z,39.6
2022-10-25T08:35:00.308Z,40.0
2022-10-25T08:36:00.444Z,40.3
2022-10-25T08:37:00.302Z,40.4
2022-10-25T08:38:00.396Z,40.8
2022-10-25T08:39:00.364Z,41.0
2022-10-25T08:40:00.301Z,40.5
2022-10-25T08:41:00.302Z,40.3
2022-10-25T08:42:00.463Z,40.6
2022-10-25T08:43:00.332Z,40.5
2022-10-25T08:45:00.299Z,40.2
2022-10-25T08:46:00.321Z,40.2
2022-10-25T08:47:00.324Z,39.5
2022-10-25T08:48:00.530Z,39.6
2022-10-25T08:49:00.326Z,39.8
2022-10-25T08:51:00.336Z,39.4
2022-10-25T08:52:00.283Z,39.2
2022-10-25T08:53:00.313Z,39.1
2022-10-25T08:54:00.515Z,39.3
2022-10-25T08:55:03.317Z,39.2
2022-10-25T08:56:16.276Z,39.0
2022-10-25T08:57:14.612Z,39.0
2022-10-25T08:58:00.352Z,39.1
2022-10-25T08:59:00.366Z,39.2
2022-10-25T09:00:00.429Z,39.4
2022-10-25T09:01:00.328Z,39.5
2022-10-25T09:02:00.491Z,39.5
2022-10-25T09:03:00.325Z,39.4
2022-10-25T09:04:00.312Z,39.4
2022-10-25T09:05:00.319Z,39.7
2022-10-25T09:06:00.560Z,39.9
2022-10-25T09:07:00.310Z,40.1
2022-10-25T09:08:00.294Z,40.3
2022-10-25T09:09:00.540Z,40.4
2022-10-25T09:10:00.298Z,40.1
2022-10-25T09:11:00.298Z,40.0
2022-10-25T09:12:00.390Z,40.1
2022-10-25T09:13:00.295Z,40.0
2022-10-25T09:14:00.312Z,39.9
2022-10-25T09:15:00.314Z,40.0
2022-10-25T09:16:00.298Z,39.9
2022-10-25T09:17:00.344Z,39.8
2022-10-25T09:18:00.493Z,39.9
2022-10-25T09:19:00.385Z,40.1
2022-10-25T09:20:00.379Z,40.6
2022-10-25T09:21:00.665Z,38.7
2022-10-25T09:22:00.296Z,33.9
2022-10-25T09:23:00.300Z,31.1
2022-10-25T09:24:00.513Z,29.4
2022-10-25T09:25:00.295Z,28.0
2022-10-25T09:26:00.300Z,26.8
2022-10-25T09:27:00.284Z,25.9
2022-10-25T09:28:00.310Z,25.3
2022-10-25T09:29:00.335Z,25.0
2022-10-25T09:30:03.833Z,24.7
2022-10-25T09:31:00.383Z,24.4
2022-10-25T09:32:00.357Z,24.0
2022-10-25T09:33:00.348Z,23.8
2022-10-25T09:34:03.238Z,23.6
2022-10-25T09:35:00.338Z,23.5
2022-10-25T09:36:00.494Z,23.2
2022-10-25T09:37:00.300Z,23.1
2022-10-25T09:38:00.306Z,24.7
2022-10-25T09:39:00.440Z,23.5
2022-10-25T09:40:00.285Z,23.0
2022-10-25T09:41:00.299Z,22.7
2022-10-25T09:42:00.489Z,22.4
2022-10-25T09:43:00.419Z,22.3
2022-10-25T09:44:00.352Z,22.3
2022-10-25T09:45:00.310Z,22.4
2022-10-25T09:47:00.290Z,22.8
2022-10-25T09:48:00.549Z,22.9
2022-10-25T09:49:00.296Z,23.8
2022-10-25T09:50:00.295Z,23.1
2022-10-25T09:51:00.291Z,23.4
2022-10-25T09:52:00.300Z,22.7
2022-10-25T09:54:00.454Z,22.8
2022-10-25T09:55:00.318Z,22.5
2022-10-25T09:56:00.303Z,22.4
2022-10-25T09:57:00.349Z,22.5
2022-10-25T09:58:00.307Z,22.8
2022-10-25T09:59:00.292Z,22.9
2022-10-25T10:00:00.497Z,23.6
2022-10-25T10:01:00.303Z,23.0
2022-10-25T10:02:00.428Z,23.8
2022-10-25T10:03:00.445Z,23.0
2022-10-25T10:04:00.409Z,22.7
2022-10-25T10:05:00.296Z,22.5
2022-10-25T10:06:00.634Z,22.4
2022-10-25T10:07:00.284Z,22.5
2022-10-25T10:08:00.340Z,22.8
2022-10-25T10:09:00.547Z,22.6
2022-10-25T10:10:00.380Z,22.5
2022-10-25T10:11:00.363Z,22.4
2022-10-25T10:12:00.538Z,22.7
2022-10-25T10:13:00.362Z,23.7
2022-10-25T10:14:00.327Z,23.6
2022-10-25T10:15:00.292Z,24.7
2022-10-25T10:16:00.284Z,24.8
2022-10-25T10:17:00.302Z,25.0
2022-10-25T10:18:00.478Z,25.6
2022-10-25T10:19:00.340Z,26.1
2022-10-25T10:20:00.301Z,26.0
2022-10-25T10:21:00.314Z,26.4
2022-10-25T10:22:00.393Z,26.0
2022-10-25T10:23:02.726Z,26.1
2022-10-25T10:24:00.480Z,26.6
2022-10-25T10:25:00.301Z,27.5
2022-10-25T10:26:00.341Z,28.6
2022-10-25T10:27:00.301Z,28.9
2022-10-25T10:28:00.295Z,29.2
2022-10-25T10:29:00.346Z,29.3
2022-10-25T10:30:00.514Z,29.5
2022-10-25T10:31:00.362Z,29.9
2022-10-25T10:32:00.373Z,29.2
2022-10-25T10:33:00.322Z,29.4
2022-10-25T10:34:00.317Z,30.0
2022-10-25T10:35:00.327Z,29.9
2022-10-25T10:36:00.453Z,30.3
2022-10-25T10:37:00.316Z,30.5
2022-10-25T10:38:00.376Z,30.6
2022-10-25T10:39:00.434Z,30.8
2022-10-25T10:40:00.306Z,30.7
2022-10-25T10:41:00.315Z,30.7
2022-10-25T10:42:00.469Z,30.6
2022-10-25T10:43:00.303Z,30.4
2022-10-25T10:44:00.291Z,30.2
2022-10-25T10:45:00.294Z,29.9
2022-10-25T10:46:00.295Z,29.4
2022-10-25T10:47:00.298Z,29.3
2022-10-25T10:48:00.488Z,29.0
2022-10-25T10:49:00.312Z,28.1
2022-10-25T10:50:00.339Z,28.1
2022-10-25T10:51:00.311Z,28.3
2022-10-25T10:52:00.328Z,28.3
2022-10-25T10:53:00.847Z,28.2
2022-10-25T10:54:00.568Z,27.8
2022-10-25T10:55:00.299Z,27.7
2022-10-25T10:56:00.295Z,27.6
2022-10-25T10:57:00.380Z,27.4
2022-10-25T10:58:00.281Z,27.2
2022-10-25T10:59:00.310Z,26.8
2022-10-25T11:00:00.420Z,26.1
2022-10-25T11:01:00.482Z,25.8
2022-10-25T11:02:00.361Z,25.5
2022-10-25T11:03:00.351Z,25.3
2022-10-25T11:04:00.970Z,25.2
2022-10-25T11:05:00.322Z,25.1
2022-10-25T11:06:00.470Z,25.0
2022-10-25T11:07:00.311Z,24.9
2022-10-25T11:08:00.312Z,24.9
2022-10-25T11:09:00.456Z,24.9
2022-10-25T11:10:00.494Z,24.7
2022-10-25T11:11:00.348Z,24.5
2022-10-25T11:12:00.427Z,24.4
2022-10-25T11:13:00.405Z,24.4
2022-10-25T11:14:00.280Z,24.2
2022-10-25T11:15:00.305Z,24.1
2022-10-25T11:16:00.390Z,24.0
2022-10-25T11:17:00.349Z,24.0
2022-10-25T11:18:00.519Z,24.0
2022-10-25T11:19:00.286Z,23.9
2022-10-25T11:20:00.295Z,23.9
2022-10-25T11:21:00.311Z,23.8
2022-10-25T11:22:00.299Z,23.9
2022-10-25T11:23:04.215Z,24.0
2022-10-25T11:24:00.433Z,23.9
2022-10-25T11:25:00.689Z,23.6
2022-10-25T11:26:00.374Z,23.5
2022-10-25T11:27:00.292Z,23.3
2022-10-25T11:28:00.369Z,23.4
2022-10-25T11:29:00.340Z,23.7
2022-10-25T11:30:00.472Z,24.0
2022-10-25T11:31:00.378Z,24.2
2022-10-25T11:32:00.281Z,24.3
2022-10-25T11:33:00.334Z,24.1
2022-10-25T11:34:00.302Z,23.9
2022-10-25T11:35:00.300Z,23.8
2022-10-25T11:36:00.439Z,23.9
2022-10-25T11:37:00.321Z,24.2
2022-10-25T11:38:00.296Z,24.4
2022-10-25T11:39:00.286Z,24.5
2022-10-25T11:40:00.330Z,24.5
2022-10-25T11:41:00.531Z,24.4
2022-10-25T11:42:00.531Z,24.4
2022-10-25T11:43:00.385Z,24.1
2022-10-25T11:44:00.306Z,23.4
2022-10-25T11:45:00.319Z,22.5
2022-10-25T11:46:00.287Z,21.8
2022-10-25T11:47:00.298Z,21.6
2022-10-25T11:48:00.473Z,21.5
2022-10-25T11:49:00.313Z,21.3
2022-10-25T11:50:00.309Z,21.0
2022-10-25T11:51:00.333Z,20.7
2022-10-25T11:52:00.310Z,20.4
2022-10-25T11:53:00.422Z,20.3
2022-10-25T11:54:00.528Z,20.1
2022-10-25T11:55:00.274Z,20.0
2022-10-25T11:56:00.430Z,20.5
2022-10-25T11:57:00.292Z,20.6
2022-10-25T11:58:04.287Z,20.7
2022-10-25T11:59:00.313Z,20.6
2022-10-25T12:00:00.558Z,20.3
2022-10-25T12:01:00.280Z,20.0
2022-10-25T12:02:00.310Z,20.1
2022-10-25T12:03:00.415Z,20.3
2022-10-25T12:04:00.317Z,20.5
2022-10-25T12:05:00.292Z,20.4
2022-10-25T12:06:00.440Z,20.2
2022-10-25T12:07:00.300Z,20.2
2022-10-25T12:08:00.332Z,20.2
2022-10-25T12:09:00.330Z,20.2
2022-10-25T12:10:00.311Z,20.1
2022-10-25T12:11:00.485Z,20.0
2022-10-25T12:12:00.629Z,19.9
2022-10-25T12:13:00.376Z,19.7
2022-10-25T12:14:00.365Z,19.6
2022-10-25T12:15:00.295Z,19.5
2022-10-25T12:16:00.307Z,19.4
2022-10-25T12:17:00.372Z,19.3
2022-10-25T12:18:00.453Z,19.3
2022-10-25T12:19:00.315Z,19.2
2022-10-25T12:20:00.297Z,19.2
2022-10-25T12:21:00.296Z,19.1
2022-10-25T12:22:01.947Z,19.0
2022-10-25T12:23:00.289Z,18.9
2022-10-25T12:24:00.456Z,18.7
2022-10-25T12:25:00.320Z,18.6
2022-10-25T12:26:00.504Z,18.6
2022-10-25T12:27:00.300Z,18.6
2022-10-25T12:28:00.315Z,18.6
2022-10-25T12:29:00.390Z,18.7
2022-10-25T12:30:00.558Z,18.6
2022-10-25T12:31:00.333Z,18.5
2022-10-25T12:32:00.339Z,18.5
2022-10-25T12:33:00.315Z,18.4
2022-10-25T12:34:00.297Z,18.4
2022-10-25T12:35:00.313Z,18.4
2022-10-25T12:36:00.441Z,18.4
2022-10-25T12:37:00.295Z,18.4
2022-10-25T12:38:00.286Z,18.4
2022-10-25T12:39:00.304Z,18.3
2022-10-25T12:40:00.305Z,18.3
2022-10-25T12:41:00.471Z,18.3
2022-10-25T12:42:00.425Z,18.3
2022-10-25T12:43:00.361Z,18.2
2022-10-25T12:44:00.302Z,18.2
2022-10-25T12:45:00.310Z,18.1
2022-10-25T12:46:00.298Z,18.1
2022-10-25T12:47:00.303Z,18.0
2022-10-25T12:48:00.456Z,17.9
2022-10-25T12:49:00.285Z,17.9
2022-10-25T12:50:00.277Z,17.9
2022-10-25T12:51:00.351Z,17.8
2022-10-25T12:52:00.353Z,17.8
2022-10-25T12:53:00.307Z,17.8
2022-10-25T12:54:00.949Z,17.7
2022-10-25T12:55:00.319Z,17.7
2022-10-25T12:56:00.427Z,17.7
2022-10-25T12:57:00.305Z,17.6
2022-10-25T12:58:00.350Z,17.6
2022-10-25T12:59:00.293Z,17.6
2022-10-25T13:00:00.411Z,17.6
2022-10-25T13:01:00.318Z,17.6
2022-10-25T13:02:00.378Z,17.6
2022-10-25T13:03:00.288Z,17.5
2022-10-25T13:04:00.344Z,17.5
2022-10-25T13:05:00.288Z,17.5
2022-10-25T13:06:00.409Z,17.5
2022-10-25T13:07:00.339Z,17.4
2022-10-25T13:08:00.334Z,17.4
2022-10-25T13:09:00.343Z,17.4
2022-10-25T13:10:00.299Z,17.4
2022-10-25T13:11:00.527Z,17.4
2022-10-25T13:12:00.449Z,17.4
2022-10-25T13:13:00.310Z,17.3
2022-10-25T13:14:00.332Z,17.3
2022-10-25T13:15:00.335Z,17.3
2022-10-25T13:16:00.368Z,17.2
2022-10-25T13:17:00.390Z,17.2
2022-10-25T13:18:00.488Z,17.1
2022-10-25T13:19:00.307Z,17.1
2022-10-25T13:20:00.317Z,17.0
2022-10-25T13:21:00.312Z,17.0
2022-10-25T13:22:00.305Z,17.0
2022-10-25T13:23:00.293Z,17.0
2022-10-25T13:24:00.559Z,17.0
2022-10-25T13:25:00.318Z,16.9
2022-10-25T13:26:00.301Z,16.9
2022-10-25T13:27:00.447Z,16.8
2022-10-25T13:28:00.298Z,16.7
2022-10-25T13:29:00.373Z,16.7
2022-10-25T13:30:00.546Z,16.7
2022-10-25T13:31:00.330Z,16.7
2022-10-25T13:32:00.333Z,16.7
2022-10-25T13:33:00.349Z,16.7
2022-10-25T13:34:00.360Z,16.7
2022-10-25T13:35:00.277Z,16.7
2022-10-25T13:36:00.441Z,16.7
2022-10-25T13:37:00.300Z,16.7